createdAt,value
2022-08-11T00:02:28.995Z,97727.03
2022-08-11T00:04:58.885Z,97725.19
2022-08-11T00:07:28.192Z,97728.59
2022-08-11T00:09:58.240Z,97729.59
2022-08-11T00:12:27.851Z,97727.44
2022-08-11T00:15:00.861Z,97729.94
2022-08-11T00:17:31.964Z,97728.09
2022-08-11T00:20:12.136Z,97727.59
2022-08-11T00:22:46.619Z,97726.78
2022-08-11T00:25:18.758Z,97730.09
2022-08-11T00:27:48.602Z,97733.94
2022-08-11T00:30:17.873Z,97732.94
2022-08-11T00:32:53.740Z,97734.59
2022-08-11T00:35:51.763Z,97731.91
2022-08-11T00:38:16.487Z,97734.59
2022-08-11T00:40:54.836Z,97730.44
2022-08-11T00:43:29.456Z,97729.59
2022-08-11T00:46:13.781Z,97739.34
2022-08-11T00:48:50.422Z,97742.00
2022-08-11T00:51:25.936Z,97736.06
2022-08-11T00:54:02.570Z,97742.44
2022-08-11T00:57:36.049Z,97752.50
2022-08-11T01:00:13.351Z,97742.16
2022-08-11T01:03:09.038Z,97746.38
2022-08-11T01:06:05.250Z,97741.91
2022-08-11T01:09:10.010Z,97745.38
2022-08-11T01:12:32.616Z,97743.88
2022-08-11T01:15:35.132Z,97740.44
2022-08-11T01:18:45.984Z,97733.88
2022-08-11T01:21:51.887Z,97726.16
2022-08-11T01:24:58.667Z,97738.22
2022-08-11T01:28:05.933Z,97729.06
2022-08-11T01:31:19.965Z,97736.72
2022-08-11T01:34:31.126Z,97731.25
2022-08-11T01:37:13.150Z,97734.88
2022-08-11T01:40:37.850Z,97724.91
2022-08-11T01:43:37.719Z,97731.00
2022-08-11T01:46:09.876Z,97723.56
2022-08-11T01:48:45.060Z,97728.78
2022-08-11T01:51:21.324Z,97726.13
2022-08-11T01:53:57.596Z,97720.25
2022-08-11T01:56:51.170Z,97712.19
2022-08-11T01:59:22.596Z,97725.22
2022-08-11T02:02:46.009Z,97716.25
2022-08-11T02:05:45.030Z,97715.88
2022-08-11T02:08:33.542Z,97715.88
2022-08-11T02:11:35.734Z,97704.53
2022-08-11T02:14:20.741Z,97709.53
2022-08-11T02:17:11.386Z,97715.88
2022-08-11T02:20:05.944Z,97711.72
2022-08-11T02:23:10.841Z,97700.97
2022-08-11T02:25:43.893Z,97701.31
2022-08-11T02:28:20.886Z,97696.97
2022-08-11T02:32:08.354Z,97702.88
2022-08-11T02:34:19.189Z,97695.50
2022-08-11T02:36:56.669Z,97696.50
2022-08-11T02:39:30.169Z,97704.19
2022-08-11T02:42:32.840Z,97700.88
2022-08-11T02:45:17.236Z,97705.19
2022-08-11T02:48:07.002Z,97704.88
2022-08-11T02:50:39.248Z,97704.19
2022-08-11T02:53:12.653Z,97698.84
2022-08-11T02:55:57.872Z,97701.03
2022-08-11T02:58:35.542Z,97702.94
2022-08-11T03:01:13.296Z,97695.44
2022-08-11T03:03:51.694Z,97694.59
2022-08-11T03:06:32.905Z,97691.09
2022-08-11T03:09:05.916Z,97694.97
2022-08-11T03:12:09.551Z,97694.44
2022-08-11T03:15:04.110Z,97698.13
2022-08-11T03:17:39.161Z,97689.00
2022-08-11T03:20:16.490Z,97697.81
2022-08-11T03:22:55.762Z,97702.81
2022-08-11T03:25:31.607Z,97695.44
2022-08-11T03:28:05.651Z,97706.88
2022-08-11T03:30:43.420Z,97702.03
2022-08-11T03:33:40.352Z,97702.84
2022-08-11T03:36:21.317Z,97699.53
2022-08-11T03:39:01.137Z,97701.50
2022-08-11T03:41:54.726Z,97695.31
2022-08-11T03:44:50.272Z,97692.81
2022-08-11T03:47:55.878Z,97701.00
2022-08-11T03:50:34.681Z,97692.13
2022-08-11T03:53:11.683Z,97699.16
2022-08-11T03:56:10.230Z,97695.31
2022-08-11T03:59:10.564Z,97683.16
2022-08-11T04:02:19.080Z,97690.50
2022-08-11T04:05:27.090Z,97693.34
2022-08-11T04:08:19.807Z,97697.91
2022-08-11T04:11:27.565Z,97695.94
2022-08-11T04:14:30.919Z,97694.22
2022-08-11T04:17:19.581Z,97689.47
2022-08-11T04:20:19.829Z,97693.78
2022-08-11T04:23:03.383Z,97688.72
2022-08-11T04:25:55.894Z,97691.84
2022-08-11T04:29:00.981Z,97684.91
2022-08-11T04:31:48.857Z,97688.09
2022-08-11T04:34:52.703Z,97694.72
2022-08-11T04:37:41.734Z,97692.59
2022-08-11T04:40:26.178Z,97692.38
2022-08-11T04:43:57.168Z,97700.09
2022-08-11T04:46:42.508Z,97708.09
2022-08-11T04:50:08.240Z,97694.56
2022-08-11T04:53:27.606Z,97698.84
2022-08-11T04:56:27.061Z,97707.41
2022-08-11T04:59:30.660Z,97704.03
2022-08-11T05:02:23.871Z,97704.84
2022-08-11T05:05:18.347Z,97709.59
2022-08-11T05:08:09.157Z,97715.78
2022-08-11T05:10:49.606Z,97718.91
2022-08-11T05:13:46.116Z,97720.88
2022-08-11T05:16:37.324Z,97717.72
2022-08-11T05:19:24.022Z,97717.19
2022-08-11T05:22:12.373Z,97706.50
2022-08-11T05:25:02.397Z,97718.25
2022-08-11T05:27:52.800Z,97728.91
2022-08-11T05:30:39.174Z,97717.78
2022-08-11T05:33:29.721Z,97726.28
2022-08-11T05:36:13.353Z,97721.09
2022-08-11T05:38:59.115Z,97723.94
2022-08-11T05:41:47.434Z,97724.59
2022-08-11T05:44:37.202Z,97722.94
2022-08-11T05:47:24.101Z,97719.28
2022-08-11T05:50:13.595Z,97722.91
2022-08-11T05:53:04.352Z,97723.44
2022-08-11T05:56:02.629Z,97720.25
2022-08-11T05:58:41.384Z,97715.91
2022-08-11T06:01:12.036Z,97713.75
2022-08-11T06:03:57.561Z,97724.59
2022-08-11T06:06:29.286Z,97715.53
2022-08-11T06:08:59.257Z,97720.25
2022-08-11T06:11:44.403Z,97726.75
2022-08-11T06:14:13.912Z,97719.06
2022-08-11T06:16:43.212Z,97715.59
2022-08-11T06:19:12.052Z,97720.06
2022-08-11T06:21:46.125Z,97719.41
2022-08-11T06:24:15.877Z,97724.59
2022-08-11T06:27:11.117Z,97722.25
2022-08-11T06:29:46.960Z,97720.56
2022-08-11T06:32:17.173Z,97717.53
2022-08-11T06:35:03.075Z,97714.03
2022-08-11T06:37:46.699Z,97717.53
2022-08-11T06:40:27.389Z,97714.50
2022-08-11T06:43:02.192Z,97721.00
2022-08-11T06:45:33.824Z,97724.16
2022-08-11T06:48:03.157Z,97719.97
2022-08-11T06:50:50.360Z,97720.97
2022-08-11T06:53:21.066Z,97721.63
2022-08-11T06:56:07.873Z,97715.13
2022-08-11T06:59:00.424Z,97714.78
2022-08-11T07:01:38.160Z,97716.63
2022-08-11T07:04:09.472Z,97725.78
2022-08-11T07:06:51.217Z,97720.09
2022-08-11T07:09:51.183Z,97709.41
2022-08-11T07:13:07.621Z,97711.06
2022-08-11T07:16:10.924Z,97721.75
2022-08-11T07:19:03.561Z,97716.06
2022-08-11T07:22:01.102Z,97707.69
2022-08-11T07:24:59.239Z,97711.66
2022-08-11T07:27:54.794Z,97702.28
2022-08-11T07:30:23.602Z,97705.63
2022-08-11T07:32:54.093Z,97702.94
2022-08-11T07:35:26.101Z,97699.41
2022-08-11T07:38:02.265Z,97702.56
2022-08-11T07:40:34.146Z,97702.19
2022-08-11T07:43:02.800Z,97708.19
2022-08-11T07:45:49.156Z,97703.50
2022-08-11T07:48:37.145Z,97716.72
2022-08-11T07:51:23.595Z,97712.84
2022-08-11T07:53:58.288Z,97707.97
2022-08-11T07:56:55.070Z,97707.69
2022-08-11T08:00:04.189Z,97708.94
2022-08-11T08:03:01.494Z,97707.28
2022-08-11T08:05:47.654Z,97700.09
2022-08-11T08:08:34.638Z,97710.09
2022-08-11T08:11:27.154Z,97704.72
2022-08-11T08:14:15.561Z,97691.31
2022-08-11T08:17:01.891Z,97692.47
2022-08-11T08:19:31.622Z,97692.59
2022-08-11T08:22:06.065Z,97696.97
2022-08-11T08:24:50.166Z,97689.91
2022-08-11T08:27:19.024Z,97688.81
2022-08-11T08:30:06.798Z,97694.63
2022-08-11T08:32:36.082Z,97702.59
2022-08-11T08:35:06.007Z,97690.75
2022-08-11T08:37:46.966Z,97689.38
2022-08-11T08:40:16.210Z,97695.97
2022-08-11T08:42:51.691Z,97696.16
2022-08-11T08:45:22.447Z,97683.78
2022-08-11T08:47:56.166Z,97689.13
2022-08-11T08:50:47.825Z,97697.16
2022-08-11T08:53:19.286Z,97704.13
2022-08-11T08:55:48.005Z,97693.88
2022-08-11T08:58:17.047Z,97707.56
2022-08-11T09:00:47.564Z,97703.78
2022-08-11T09:03:39.897Z,97705.72
2022-08-11T09:06:05.295Z,97696.94
2022-08-11T09:08:35.180Z,97700.66
2022-08-11T09:11:23.496Z,97695.44
2022-08-11T09:14:05.160Z,97687.94
2022-08-11T09:16:36.698Z,97697.72
2022-08-11T09:19:05.354Z,97706.91
2022-08-11T09:21:46.272Z,97700.13
2022-08-11T09:24:36.612Z,97702.81
2022-08-11T09:27:08.965Z,97699.50
2022-08-11T09:29:39.275Z,97700.50
2022-08-11T09:32:09.198Z,97700.97
2022-08-11T09:34:38.595Z,97696.53
2022-08-11T09:37:53.643Z,97690.25
2022-08-11T09:40:30.204Z,97692.63
2022-08-11T09:43:16.979Z,97693.66
2022-08-11T09:45:50.550Z,97690.31
2022-08-11T09:48:21.212Z,97689.03
2022-08-11T09:50:52.490Z,97683.50
2022-08-11T09:53:36.611Z,97687.50
2022-08-11T09:56:30.895Z,97672.38
2022-08-11T09:59:00.184Z,97679.44
2022-08-11T10:01:31.692Z,97672.19
2022-08-11T10:04:06.951Z,97668.13
2022-08-11T10:06:55.467Z,97665.03
2022-08-11T10:09:25.805Z,97667.94
2022-08-11T10:11:58.803Z,97670.78
2022-08-11T10:14:46.649Z,97663.41
2022-08-11T10:17:17.318Z,97657.63
2022-08-11T10:20:04.108Z,97656.56
2022-08-11T10:22:53.085Z,97648.56
2022-08-11T10:25:40.032Z,97643.94
2022-08-11T10:28:28.915Z,97652.13
2022-08-11T10:31:16.544Z,97655.66
2022-08-11T10:34:01.596Z,97641.44
2022-08-11T10:36:33.730Z,97640.88
2022-08-11T10:39:03.985Z,97647.91
2022-08-11T10:42:06.861Z,97640.03
2022-08-11T10:44:39.916Z,97639.25
2022-08-11T10:47:26.893Z,97641.34
2022-08-11T10:50:09.686Z,97635.50
2022-08-11T10:52:58.214Z,97628.72
2022-08-11T10:55:45.306Z,97633.06
2022-08-11T10:58:31.760Z,97632.38
2022-08-11T11:01:00.880Z,97620.91
2022-08-11T11:03:34.581Z,97625.78
2022-08-11T11:06:27.759Z,97615.28
2022-08-11T11:09:04.967Z,97620.84
2022-08-11T11:11:57.461Z,97609.03
2022-08-11T11:14:49.895Z,97607.63
2022-08-11T11:17:41.148Z,97601.22
2022-08-11T11:20:36.301Z,97615.22
2022-08-11T11:23:04.393Z,97631.03
2022-08-11T11:26:27.126Z,97609.47
2022-08-11T11:29:22.455Z,97618.00
2022-08-11T11:31:58.529Z,97613.84
2022-08-11T11:35:03.157Z,97606.03
2022-08-11T11:37:34.519Z,97605.91
2022-08-11T11:40:10.304Z,97613.19
2022-08-11T11:42:41.613Z,97610.38
2022-08-11T11:45:23.271Z,97601.09
2022-08-11T11:47:54.303Z,97613.41
2022-08-11T11:50:31.740Z,97606.56
2022-08-11T11:53:02.396Z,97596.25
2022-08-11T11:55:31.250Z,97599.31
2022-08-11T11:58:20.464Z,97596.69
2022-08-11T12:01:08.961Z,97599.59
2022-08-11T12:03:38.413Z,97594.38
2022-08-11T12:06:08.567Z,97598.75
2022-08-11T12:08:38.261Z,97602.28
2022-08-11T12:11:26.292Z,97600.19
2022-08-11T12:13:58.441Z,97581.13
2022-08-11T12:16:34.970Z,97593.78
2022-08-11T12:19:06.912Z,97586.16
2022-08-11T12:21:36.920Z,97577.41
2022-08-11T12:24:28.502Z,97577.00
2022-08-11T12:27:17.814Z,97562.94
2022-08-11T12:29:55.053Z,97571.22
2022-08-11T12:32:26.092Z,97571.22
2022-08-11T12:34:57.193Z,97561.69
2022-08-11T12:37:31.132Z,97572.44
2022-08-11T12:40:43.227Z,97566.88
2022-08-11T12:43:37.986Z,97563.34
2022-08-11T12:46:10.104Z,97558.16
2022-08-11T12:49:02.784Z,97563.75
2022-08-11T12:52:13.815Z,97561.88
2022-08-11T12:54:51.578Z,97554.22
2022-08-11T12:57:51.281Z,97553.34
2022-08-11T13:00:38.267Z,97546.56
2022-08-11T13:03:27.261Z,97543.03
2022-08-11T13:05:57.487Z,97549.25
2022-08-11T13:08:26.893Z,97536.63
2022-08-11T13:11:13.932Z,97535.81
2022-08-11T13:13:55.459Z,97541.16
2022-08-11T13:16:26.737Z,97537.19
2022-08-11T13:18:57.389Z,97527.69
2022-08-11T13:21:26.069Z,97529.56
2022-08-11T13:23:59.448Z,97520.66
2022-08-11T13:26:46.888Z,97522.28
2022-08-11T13:29:19.987Z,97507.94
2022-08-11T13:31:48.863Z,97499.19
2022-08-11T13:34:20.261Z,97508.28
2022-08-11T13:36:52.346Z,97515.13
2022-08-11T13:39:24.162Z,97512.09
2022-08-11T13:41:53.878Z,97513.03
2022-08-11T13:44:25.768Z,97502.25
2022-08-11T13:46:56.290Z,97512.84
2022-08-11T13:49:26.304Z,97505.69
2022-08-11T13:51:55.485Z,97502.16
2022-08-11T13:54:28.131Z,97505.63
2022-08-11T13:57:01.058Z,97499.59
2022-08-11T13:59:31.424Z,97499.19
2022-08-11T14:02:21.995Z,97492.38
2022-08-11T14:04:57.828Z,97480.91
2022-08-11T14:07:36.800Z,97483.63
2022-08-11T14:10:07.447Z,97483.78
2022-08-11T14:12:54.961Z,97483.97
2022-08-11T14:15:25.557Z,97482.97
2022-08-11T14:17:56.503Z,97485.94
2022-08-11T14:20:46.712Z,97488.41
2022-08-11T14:23:14.686Z,97477.22
2022-08-11T14:26:03.740Z,97469.97
2022-08-11T14:28:40.220Z,97474.44
2022-08-11T14:31:13.568Z,97474.38
2022-08-11T14:34:00.723Z,97463.38
2022-08-11T14:36:34.169Z,97465.38
2022-08-11T14:39:05.115Z,97460.78
2022-08-11T14:42:12.665Z,97459.78
2022-08-11T14:45:01.253Z,97453.03
2022-08-11T14:47:31.842Z,97457.03
2022-08-11T14:50:10.370Z,97462.25
2022-08-11T14:52:47.007Z,97459.38
2022-08-11T14:55:33.727Z,97455.38
2022-08-11T14:58:03.054Z,97449.59
2022-08-11T15:00:32.467Z,97451.25
2022-08-11T15:03:13.537Z,97450.41
2022-08-11T15:05:56.177Z,97441.06
2022-08-11T15:08:47.930Z,97437.19
2022-08-11T15:11:36.526Z,97439.56
2022-08-11T15:14:07.148Z,97445.34
2022-08-11T15:16:54.055Z,97429.78
2022-08-11T15:19:22.573Z,97431.78
2022-08-11T15:22:08.784Z,97430.91
2022-08-11T15:24:38.988Z,97434.72
2022-08-11T15:27:30.757Z,97436.69
2022-08-11T15:30:33.508Z,97437.88
2022-08-11T15:33:23.491Z,97435.47
2022-08-11T15:36:10.536Z,97433.31
2022-08-11T15:38:44.163Z,97433.78
2022-08-11T15:41:35.721Z,97424.59
2022-08-11T15:44:44.627Z,97424.59
2022-08-11T15:47:14.852Z,97415.94
2022-08-11T15:50:11.666Z,97421.81
2022-08-11T15:52:37.869Z,97417.31
2022-08-11T15:55:08.607Z,97421.59
2022-08-11T15:58:03.242Z,97419.03
2022-08-11T16:00:49.286Z,97417.84
2022-08-11T16:04:06.195Z,97414.03
2022-08-11T16:06:35.225Z,97407.50
2022-08-11T16:09:08.420Z,97408.63
2022-08-11T16:11:47.571Z,97415.72
2022-08-11T16:14:36.477Z,97415.88
2022-08-11T16:17:06.453Z,97415.38
2022-08-11T16:19:36.459Z,97407.28
2022-08-11T16:22:08.409Z,97401.06
2022-08-11T16:27:05.194Z,97396.78
2022-08-11T16:27:29.097Z,97399.50
2022-08-11T16:29:59.242Z,97405.41
2022-08-11T16:32:27.819Z,97393.03
2022-08-11T16:35:15.702Z,97395.63
2022-08-11T16:38:02.922Z,97400.38
2022-08-11T16:40:31.972Z,97392.88
2022-08-11T16:43:18.816Z,97395.41
2022-08-11T16:46:06.824Z,97388.75
2022-08-11T16:48:38.768Z,97392.72
2022-08-11T16:51:07.789Z,97391.47
2022-08-11T16:54:04.008Z,97384.41
2022-08-11T16:56:30.686Z,97390.91
2022-08-11T16:59:14.502Z,97391.81
2022-08-11T17:01:48.669Z,97394.94
2022-08-11T17:04:48.447Z,97393.72
2022-08-11T17:07:45.336Z,97397.06
2022-08-11T17:10:51.156Z,97394.38
2022-08-11T17:13:25.409Z,97393.78
2022-08-11T17:16:11.780Z,97399.81
2022-08-11T17:18:55.779Z,97397.34
2022-08-11T17:21:29.832Z,97399.06
2022-08-11T17:24:02.767Z,97403.22
2022-08-11T17:26:54.651Z,97404.25
2022-08-11T17:29:26.970Z,97403.44
2022-08-11T17:32:14.216Z,97409.25
2022-08-11T17:35:11.674Z,97416.53
2022-08-11T17:37:41.322Z,97411.19
2022-08-11T17:40:12.304Z,97417.00
2022-08-11T17:43:10.627Z,97416.81
2022-08-11T17:45:58.545Z,97408.13
2022-08-11T17:48:28.560Z,97404.00
2022-08-11T17:51:00.805Z,97410.22
2022-08-11T17:54:02.131Z,97411.28
2022-08-11T17:56:57.791Z,97415.03
2022-08-11T17:59:49.024Z,97419.38
2022-08-11T18:02:37.217Z,97415.06
2022-08-11T18:05:12.304Z,97417.97
2022-08-11T18:08:01.855Z,97428.13
2022-08-11T18:10:49.947Z,97425.03
2022-08-11T18:13:37.768Z,97415.50
2022-08-11T18:16:23.975Z,97429.19
2022-08-11T18:19:09.982Z,97433.13
2022-08-11T18:22:14.400Z,97423.78
2022-08-11T18:25:07.601Z,97430.22
2022-08-11T18:27:54.856Z,97434.56
2022-08-11T18:30:41.716Z,97431.81
2022-08-11T18:36:37.678Z,97443.00
2022-08-11T18:39:25.639Z,97442.78
2022-08-11T18:42:13.286Z,97441.16
2022-08-11T18:45:07.106Z,97447.53
2022-08-11T18:47:55.450Z,97443.19
2022-08-11T18:50:43.770Z,97454.75
2022-08-11T18:53:34.833Z,97453.88
2022-08-11T18:56:21.400Z,97458.63
2022-08-11T18:59:09.571Z,97465.03
2022-08-11T19:01:56.536Z,97469.31
2022-08-11T19:04:43.009Z,97465.13
2022-08-11T19:07:30.315Z,97473.59
2022-08-11T19:10:16.736Z,97479.81
2022-08-11T19:13:04.677Z,97480.59
2022-08-11T19:15:53.930Z,97479.13
2022-08-11T19:18:41.346Z,97483.25
2022-08-11T19:21:28.203Z,97485.09
2022-08-11T19:24:19.197Z,97491.66
2022-08-11T19:27:06.129Z,97484.78
2022-08-11T19:30:08.070Z,97491.13
2022-08-11T19:33:01.228Z,97489.91
2022-08-11T19:35:47.778Z,97489.91
2022-08-11T19:38:34.310Z,97494.84
2022-08-11T19:41:56.969Z,97493.00
2022-08-11T19:44:27.137Z,97493.06
2022-08-11T19:47:14.017Z,97485.41
2022-08-11T19:50:02.829Z,97493.22
2022-08-11T19:52:49.706Z,97494.88
2022-08-11T19:55:36.638Z,97493.53
2022-08-11T19:58:26.519Z,97489.97
2022-08-11T20:01:12.596Z,97500.72
2022-08-11T20:03:58.420Z,97499.25
2022-08-11T20:06:46.091Z,97489.31
2022-08-11T20:10:05.518Z,97491.09
2022-08-11T20:12:38.894Z,97496.66
2022-08-11T20:15:26.554Z,97489.97
2022-08-11T20:18:13.010Z,97500.31
2022-08-11T20:20:58.975Z,97502.78
2022-08-11T20:23:46.627Z,97506.78
2022-08-11T20:26:33.110Z,97515.25
2022-08-11T20:29:19.608Z,97514.81
2022-08-11T20:32:06.629Z,97514.84
2022-08-11T20:34:57.190Z,97521.06
2022-08-11T20:37:45.058Z,97522.50
2022-08-11T20:40:36.071Z,97512.78
2022-08-11T20:44:06.001Z,97534.06
2022-08-11T20:46:28.245Z,97531.84
2022-08-11T20:49:15.606Z,97528.81
2022-08-11T20:52:01.585Z,97530.47
2022-08-11T20:54:53.597Z,97533.88
2022-08-11T20:58:03.768Z,97534.41
2022-08-11T21:00:49.369Z,97534.06
2022-08-11T21:03:45.336Z,97543.47
2022-08-11T21:06:43.044Z,97546.13
2022-08-11T21:12:36.704Z,97548.25
2022-08-11T21:15:47.533Z,97538.00
2022-08-11T21:18:33.440Z,97543.28
2022-08-11T21:21:24.640Z,97543.38
2022-08-11T21:24:21.522Z,97540.97
2022-08-11T21:27:09.840Z,97539.03
2022-08-11T21:30:03.266Z,97535.97
2022-08-11T21:32:51.002Z,97532.56
2022-08-11T21:35:37.797Z,97525.09
2022-08-11T21:38:31.756Z,97524.34
2022-08-11T21:41:19.212Z,97526.94
2022-08-11T21:44:06.283Z,97529.47
2022-08-11T21:46:55.699Z,97529.03
2022-08-11T21:49:44.908Z,97530.28
2022-08-11T21:52:31.187Z,97530.44
2022-08-11T21:55:18.117Z,97531.66
2022-08-11T21:58:04.543Z,97533.41
2022-08-11T22:00:51.007Z,97531.25
2022-08-11T22:03:49.901Z,97528.84
2022-08-11T22:06:38.967Z,97535.41
2022-08-11T22:09:24.907Z,97524.72
2022-08-11T22:12:34.644Z,97531.09
2022-08-11T22:15:17.462Z,97532.88
2022-08-11T22:18:03.359Z,97520.56
2022-08-11T22:20:50.654Z,97530.44
2022-08-11T22:23:38.436Z,97519.91
2022-08-11T22:26:24.429Z,97519.84
2022-08-11T22:29:11.209Z,97518.63
2022-08-11T22:31:58.139Z,97522.97
2022-08-11T22:34:52.857Z,97526.63
2022-08-11T22:37:40.609Z,97523.81
2022-08-11T22:40:29.291Z,97519.38
2022-08-11T22:43:15.427Z,97519.50
2022-08-11T22:46:02.881Z,97525.81
2022-08-11T22:48:49.759Z,97518.72
2022-08-11T22:51:36.737Z,97523.31
2022-08-11T22:54:23.325Z,97510.38
2022-08-11T22:57:11.499Z,97515.53
2022-08-11T22:59:58.792Z,97512.66
2022-08-11T23:02:46.016Z,97509.78
2022-08-11T23:05:33.475Z,97506.47
2022-08-11T23:08:19.805Z,97500.81
2022-08-11T23:11:06.720Z,97506.47
2022-08-11T23:13:54.518Z,97501.94
2022-08-11T23:16:40.879Z,97500.81
2022-08-11T23:20:07.294Z,97501.81
2022-08-11T23:22:49.246Z,97501.34
2022-08-11T23:25:36.595Z,97501.13
2022-08-11T23:28:23.333Z,97501.34
2022-08-11T23:31:12.761Z,97505.19
2022-08-11T23:33:59.199Z,97493.63
2022-08-11T23:36:47.103Z,97502.34
2022-08-11T23:39:35.183Z,97499.63
2022-08-11T23:42:21.546Z,97501.22
2022-08-11T23:45:09.502Z,97496.47
2022-08-11T23:47:57.627Z,97496.84
2022-08-11T23:50:43.907Z,97495.53
2022-08-11T23:53:30.867Z,97495.47
2022-08-11T23:56:17.434Z,97490.91
2022-08-11T23:59:08.794Z,97497.56
